sensor_id;sensor_type;location;lat;lon;timestamp;P1;durP1;ratioP1;P2;durP2;ratioP2
41964;SDS011;50120;53.250;8.702;2022-12-18T00:01:47;72.85;;;23.75;;
41964;SDS011;50120;53.250;8.702;2022-12-18T00:04:23;75.50;;;23.90;;
41964;SDS011;50120;53.250;8.702;2022-12-18T00:06:50;66.72;;;22.42;;
41964;SDS011;50120;53.250;8.702;2022-12-18T00:09:17;72.32;;;24.60;;
41964;SDS011;50120;53.250;8.702;2022-12-18T00:11:43;73.38;;;23.95;;
41964;SDS011;50120;53.250;8.702;2022-12-18T00:14:09;68.60;;;23.52;;
41964;SDS011;50120;53.250;8.702;2022-12-18T00:16:37;75.43;;;24.08;;
41964;SDS011;50120;53.250;8.702;2022-12-18T00:19:03;79.80;;;24.63;;
41964;SDS011;50120;53.250;8.702;2022-12-18T00:21:30;74.18;;;24.38;;
41964;SDS011;50120;53.250;8.702;2022-12-18T00:23:56;81.40;;;24.15;;
41964;SDS011;50120;53.250;8.702;2022-12-18T00:26:24;75.82;;;23.88;;
41964;SDS011;50120;53.250;8.702;2022-12-18T00:28:51;68.03;;;22.60;;
41964;SDS011;50120;53.250;8.702;2022-12-18T00:31:22;72.50;;;23.67;;
41964;SDS011;50120;53.250;8.702;2022-12-18T00:33:49;71.35;;;23.88;;
41964;SDS011;50120;53.250;8.702;2022-12-18T00:36:19;67.60;;;22.50;;
41964;SDS011;50120;53.250;8.702;2022-12-18T00:38:46;72.28;;;23.90;;
41964;SDS011;50120;53.250;8.702;2022-12-18T00:41:13;70.60;;;23.08;;
41964;SDS011;50120;53.250;8.702;2022-12-18T00:44:00;72.95;;;22.40;;
41964;SDS011;50120;53.250;8.702;2022-12-18T00:46:27;77.07;;;24.58;;
41964;SDS011;50120;53.250;8.702;2022-12-18T00:48:52;70.38;;;23.02;;
41964;SDS011;50120;53.250;8.702;2022-12-18T00:51:21;75.95;;;24.13;;
41964;SDS011;50120;53.250;8.702;2022-12-18T00:53:47;72.82;;;23.98;;
41964;SDS011;50120;53.250;8.702;2022-12-18T00:56:13;72.43;;;23.50;;
41964;SDS011;50120;53.250;8.702;2022-12-18T00:58:39;71.43;;;23.17;;
41964;SDS011;50120;53.250;8.702;2022-12-18T01:01:05;80.10;;;24.58;;
41964;SDS011;50120;53.250;8.702;2022-12-18T01:03:31;79.65;;;24.58;;
41964;SDS011;50120;53.250;8.702;2022-12-18T01:05:56;78.05;;;24.48;;
41964;SDS011;50120;53.250;8.702;2022-12-18T01:08:22;86.20;;;24.35;;
41964;SDS011;50120;53.250;8.702;2022-12-18T01:10:48;82.90;;;25.05;;
41964;SDS011;50120;53.250;8.702;2022-12-18T01:13:14;94.75;;;25.20;;
41964;SDS011;50120;53.250;8.702;2022-12-18T01:15:40;78.32;;;24.55;;
41964;SDS011;50120;53.250;8.702;2022-12-18T01:18:06;76.82;;;22.83;;
41964;SDS011;50120;53.250;8.702;2022-12-18T01:20:32;82.22;;;25.15;;
41964;SDS011;50120;53.250;8.702;2022-12-18T01:22:58;77.03;;;24.42;;
41964;SDS011;50120;53.250;8.702;2022-12-18T01:25:24;93.10;;;26.85;;
41964;SDS011;50120;53.250;8.702;2022-12-18T01:27:50;83.25;;;26.23;;
41964;SDS011;50120;53.250;8.702;2022-12-18T01:30:15;85.75;;;24.80;;
41964;SDS011;50120;53.250;8.702;2022-12-18T01:32:41;82.35;;;24.80;;
41964;SDS011;50120;53.250;8.702;2022-12-18T01:35:07;80.63;;;24.63;;
41964;SDS011;50120;53.250;8.702;2022-12-18T01:37:33;84.30;;;24.92;;
41964;SDS011;50120;53.250;8.702;2022-12-18T01:39:58;79.22;;;24.52;;
41964;SDS011;50120;53.250;8.702;2022-12-18T01:42:24;71.30;;;25.35;;
41964;SDS011;50120;53.250;8.702;2022-12-18T01:44:53;78.35;;;24.90;;
41964;SDS011;50120;53.250;8.702;2022-12-18T01:47:30;85.68;;;25.05;;
41964;SDS011;50120;53.250;8.702;2022-12-18T01:50:16;79.80;;;24.50;;
41964;SDS011;50120;53.250;8.702;2022-12-18T01:55:37;80.93;;;25.70;;
41964;SDS011;50120;53.250;8.702;2022-12-18T01:58:08;72.53;;;23.83;;
41964;SDS011;50120;53.250;8.702;2022-12-18T02:00:34;70.10;;;23.80;;
41964;SDS011;50120;53.250;8.702;2022-12-18T02:02:59;82.47;;;23.98;;
41964;SDS011;50120;53.250;8.702;2022-12-18T02:08:02;75.80;;;24.10;;
41964;SDS011;50120;53.250;8.702;2022-12-18T02:10:46;75.60;;;24.15;;
41964;SDS011;50120;53.250;8.702;2022-12-18T02:18:36;65.70;;;21.58;;
41964;SDS011;50120;53.250;8.702;2022-12-18T02:24:38;67.35;;;21.65;;
41964;SDS011;50120;53.250;8.702;2022-12-18T02:26:45;71.45;;;22.30;;
41964;SDS011;50120;53.250;8.702;2022-12-18T02:29:53;67.15;;;21.52;;
41964;SDS011;50120;53.250;8.702;2022-12-18T02:32:16;63.70;;;21.25;;
41964;SDS011;50120;53.250;8.702;2022-12-18T02:34:47;71.30;;;21.65;;
41964;SDS011;50120;53.250;8.702;2022-12-18T02:37:16;61.15;;;21.55;;
41964;SDS011;50120;53.250;8.702;2022-12-18T02:39:44;61.88;;;20.85;;
41964;SDS011;50120;53.250;8.702;2022-12-18T02:42:15;76.20;;;22.75;;
41964;SDS011;50120;53.250;8.702;2022-12-18T02:44:43;61.00;;;20.50;;
41964;SDS011;50120;53.250;8.702;2022-12-18T02:47:14;66.05;;;21.77;;
41964;SDS011;50120;53.250;8.702;2022-12-18T03:00:20;67.03;;;20.67;;
41964;SDS011;50120;53.250;8.702;2022-12-18T03:06:00;61.25;;;19.88;;
41964;SDS011;50120;53.250;8.702;2022-12-18T03:08:33;62.15;;;21.25;;
41964;SDS011;50120;53.250;8.702;2022-12-18T03:11:10;63.22;;;21.02;;
41964;SDS011;50120;53.250;8.702;2022-12-18T03:13:45;65.65;;;21.42;;
41964;SDS011;50120;53.250;8.702;2022-12-18T03:16:16;61.97;;;20.08;;
41964;SDS011;50120;53.250;8.702;2022-12-18T03:18:49;59.88;;;19.33;;
41964;SDS011;50120;53.250;8.702;2022-12-18T03:21:23;62.53;;;19.60;;
41964;SDS011;50120;53.250;8.702;2022-12-18T03:23:54;63.83;;;19.67;;
41964;SDS011;50120;53.250;8.702;2022-12-18T03:26:22;67.20;;;20.55;;
41964;SDS011;50120;53.250;8.702;2022-12-18T03:28:53;58.13;;;19.35;;
41964;SDS011;50120;53.250;8.702;2022-12-18T03:31:24;54.88;;;19.45;;
41964;SDS011;50120;53.250;8.702;2022-12-18T03:33:57;54.90;;;18.83;;
41964;SDS011;50120;53.250;8.702;2022-12-18T03:36:26;52.28;;;18.67;;
41964;SDS011;50120;53.250;8.702;2022-12-18T03:38:58;49.05;;;17.70;;
41964;SDS011;50120;53.250;8.702;2022-12-18T03:41:33;49.47;;;17.25;;
41964;SDS011;50120;53.250;8.702;2022-12-18T03:46:52;38.33;;;13.85;;
41964;SDS011;50120;53.250;8.702;2022-12-18T03:52:06;50.97;;;17.88;;
41964;SDS011;50120;53.250;8.702;2022-12-18T03:54:38;35.70;;;12.68;;
41964;SDS011;50120;53.250;8.702;2022-12-18T03:57:09;48.50;;;17.38;;
41964;SDS011;50120;53.250;8.702;2022-12-18T03:59:39;48.40;;;17.33;;
41964;SDS011;50120;53.250;8.702;2022-12-18T04:02:07;48.35;;;17.75;;
41964;SDS011;50120;53.250;8.702;2022-12-18T04:04:35;50.90;;;18.48;;
41964;SDS011;50120;53.250;8.702;2022-12-18T04:07:03;45.70;;;16.55;;
41964;SDS011;50120;53.250;8.702;2022-12-18T04:09:30;47.90;;;18.45;;
41964;SDS011;50120;53.250;8.702;2022-12-18T04:11:57;54.20;;;17.83;;
41964;SDS011;50120;53.250;8.702;2022-12-18T04:14:23;49.00;;;18.27;;
41964;SDS011;50120;53.250;8.702;2022-12-18T04:16:49;53.38;;;17.63;;
41964;SDS011;50120;53.250;8.702;2022-12-18T04:19:14;48.20;;;17.38;;
41964;SDS011;50120;53.250;8.702;2022-12-18T04:21:40;47.28;;;17.20;;
41964;SDS011;50120;53.250;8.702;2022-12-18T04:24:06;43.00;;;16.02;;
41964;SDS011;50120;53.250;8.702;2022-12-18T04:26:32;47.70;;;17.08;;
41964;SDS011;50120;53.250;8.702;2022-12-18T04:28:57;44.90;;;16.27;;
41964;SDS011;50120;53.250;8.702;2022-12-18T04:31:23;46.95;;;16.05;;
41964;SDS011;50120;53.250;8.702;2022-12-18T04:33:49;41.42;;;15.77;;
41964;SDS011;50120;53.250;8.702;2022-12-18T04:36:15;47.50;;;16.40;;
41964;SDS011;50120;53.250;8.702;2022-12-18T04:38:40;38.97;;;15.20;;
41964;SDS011;50120;53.250;8.702;2022-12-18T04:41:06;42.42;;;16.35;;
41964;SDS011;50120;53.250;8.702;2022-12-18T04:43:31;43.25;;;16.88;;
41964;SDS011;50120;53.250;8.702;2022-12-18T04:46:02;39.60;;;15.35;;
41964;SDS011;50120;53.250;8.702;2022-12-18T04:48:28;38.47;;;14.48;;
41964;SDS011;50120;53.250;8.702;2022-12-18T04:50:54;38.30;;;15.10;;
41964;SDS011;50120;53.250;8.702;2022-12-18T04:53:20;44.42;;;15.40;;
41964;SDS011;50120;53.250;8.702;2022-12-18T04:55:46;40.53;;;14.45;;
41964;SDS011;50120;53.250;8.702;2022-12-18T04:58:11;38.92;;;15.18;;
41964;SDS011;50120;53.250;8.702;2022-12-18T05:00:37;36.97;;;14.05;;
41964;SDS011;50120;53.250;8.702;2022-12-18T05:03:02;43.55;;;14.48;;
41964;SDS011;50120;53.250;8.702;2022-12-18T05:05:28;39.80;;;14.75;;
41964;SDS011;50120;53.250;8.702;2022-12-18T05:07:54;42.30;;;15.00;;
41964;SDS011;50120;53.250;8.702;2022-12-18T05:10:20;36.53;;;15.07;;
41964;SDS011;50120;53.250;8.702;2022-12-18T05:12:45;40.20;;;15.65;;
41964;SDS011;50120;53.250;8.702;2022-12-18T05:15:24;37.08;;;14.65;;
41964;SDS011;50120;53.250;8.702;2022-12-18T05:17:53;41.55;;;15.20;;
41964;SDS011;50120;53.250;8.702;2022-12-18T05:20:19;37.78;;;14.05;;
41964;SDS011;50120;53.250;8.702;2022-12-18T05:22:45;41.58;;;15.63;;
41964;SDS011;50120;53.250;8.702;2022-12-18T05:25:11;38.97;;;13.77;;
41964;SDS011;50120;53.250;8.702;2022-12-18T05:27:36;37.78;;;14.13;;
41964;SDS011;50120;53.250;8.702;2022-12-18T05:30:02;36.45;;;14.40;;
41964;SDS011;50120;53.250;8.702;2022-12-18T05:32:28;36.05;;;14.50;;
41964;SDS011;50120;53.250;8.702;2022-12-18T05:34:54;36.17;;;14.25;;
41964;SDS011;50120;53.250;8.702;2022-12-18T05:37:22;37.00;;;13.75;;
41964;SDS011;50120;53.250;8.702;2022-12-18T05:39:48;34.42;;;13.20;;
41964;SDS011;50120;53.250;8.702;2022-12-18T05:42:13;39.05;;;13.80;;
41964;SDS011;50120;53.250;8.702;2022-12-18T05:44:39;37.45;;;13.55;;
41964;SDS011;50120;53.250;8.702;2022-12-18T05:47:05;39.33;;;14.10;;
41964;SDS011;50120;53.250;8.702;2022-12-18T05:49:31;41.00;;;14.43;;
41964;SDS011;50120;53.250;8.702;2022-12-18T05:51:56;35.88;;;13.77;;
41964;SDS011;50120;53.250;8.702;2022-12-18T05:54:22;40.10;;;14.23;;
41964;SDS011;50120;53.250;8.702;2022-12-18T05:56:48;38.00;;;14.63;;
41964;SDS011;50120;53.250;8.702;2022-12-18T05:59:13;36.17;;;13.30;;
41964;SDS011;50120;53.250;8.702;2022-12-18T06:01:39;33.95;;;12.95;;
41964;SDS011;50120;53.250;8.702;2022-12-18T06:04:05;33.78;;;13.38;;
41964;SDS011;50120;53.250;8.702;2022-12-18T06:06:31;34.92;;;13.48;;
41964;SDS011;50120;53.250;8.702;2022-12-18T06:08:57;33.20;;;13.23;;
41964;SDS011;50120;53.250;8.702;2022-12-18T06:11:23;27.73;;;11.00;;
41964;SDS011;50120;53.250;8.702;2022-12-18T06:13:54;41.45;;;13.05;;
41964;SDS011;50120;53.250;8.702;2022-12-18T06:16:21;41.75;;;13.32;;
41964;SDS011;50120;53.250;8.702;2022-12-18T06:18:47;30.27;;;12.90;;
41964;SDS011;50120;53.250;8.702;2022-12-18T06:21:12;32.47;;;11.70;;
41964;SDS011;50120;53.250;8.702;2022-12-18T06:23:38;34.92;;;13.20;;
41964;SDS011;50120;53.250;8.702;2022-12-18T06:26:08;34.35;;;12.45;;
41964;SDS011;50120;53.250;8.702;2022-12-18T06:28:35;35.58;;;13.40;;
41964;SDS011;50120;53.250;8.702;2022-12-18T06:31:02;38.60;;;13.52;;
41964;SDS011;50120;53.250;8.702;2022-12-18T06:33:28;32.67;;;12.55;;
41964;SDS011;50120;53.250;8.702;2022-12-18T06:35:54;33.55;;;12.73;;
41964;SDS011;50120;53.250;8.702;2022-12-18T06:38:25;32.28;;;13.02;;
41964;SDS011;50120;53.250;8.702;2022-12-18T06:40:51;35.55;;;13.48;;
41964;SDS011;50120;53.250;8.702;2022-12-18T06:43:17;33.83;;;13.35;;
41964;SDS011;50120;53.250;8.702;2022-12-18T06:45:42;38.85;;;14.23;;
41964;SDS011;50120;53.250;8.702;2022-12-18T06:48:08;34.03;;;13.48;;
41964;SDS011;50120;53.250;8.702;2022-12-18T06:50:34;35.75;;;13.18;;
41964;SDS011;50120;53.250;8.702;2022-12-18T06:52:59;35.88;;;12.57;;
41964;SDS011;50120;53.250;8.702;2022-12-18T06:55:25;34.85;;;12.27;;
41964;SDS011;50120;53.250;8.702;2022-12-18T06:57:51;39.08;;;14.00;;
41964;SDS011;50120;53.250;8.702;2022-12-18T07:00:17;32.97;;;12.95;;
41964;SDS011;50120;53.250;8.702;2022-12-18T07:02:43;31.90;;;12.10;;
41964;SDS011;50120;53.250;8.702;2022-12-18T07:05:09;35.65;;;13.50;;
41964;SDS011;50120;53.250;8.702;2022-12-18T07:07:34;34.08;;;12.07;;
41964;SDS011;50120;53.250;8.702;2022-12-18T07:10:00;33.10;;;12.18;;
41964;SDS011;50120;53.250;8.702;2022-12-18T07:12:26;37.78;;;12.48;;
41964;SDS011;50120;53.250;8.702;2022-12-18T07:14:52;36.25;;;13.20;;
41964;SDS011;50120;53.250;8.702;2022-12-18T07:17:18;30.65;;;12.60;;
41964;SDS011;50120;53.250;8.702;2022-12-18T07:19:44;38.47;;;13.55;;
41964;SDS011;50120;53.250;8.702;2022-12-18T07:22:10;36.25;;;13.70;;
41964;SDS011;50120;53.250;8.702;2022-12-18T07:24:35;32.55;;;12.43;;
41964;SDS011;50120;53.250;8.702;2022-12-18T07:27:01;35.85;;;12.45;;
41964;SDS011;50120;53.250;8.702;2022-12-18T07:29:27;32.58;;;13.07;;
41964;SDS011;50120;53.250;8.702;2022-12-18T07:31:53;36.13;;;12.50;;
41964;SDS011;50120;53.250;8.702;2022-12-18T07:34:19;33.45;;;12.65;;
41964;SDS011;50120;53.250;8.702;2022-12-18T07:36:45;38.75;;;12.80;;
41964;SDS011;50120;53.250;8.702;2022-12-18T07:39:11;36.42;;;12.60;;
41964;SDS011;50120;53.250;8.702;2022-12-18T07:41:36;33.25;;;12.55;;
41964;SDS011;50120;53.250;8.702;2022-12-18T07:44:02;33.47;;;12.68;;
41964;SDS011;50120;53.250;8.702;2022-12-18T07:46:28;26.77;;;10.95;;
41964;SDS011;50120;53.250;8.702;2022-12-18T07:48:54;33.17;;;11.90;;
41964;SDS011;50120;53.250;8.702;2022-12-18T07:51:20;30.25;;;12.00;;
41964;SDS011;50120;53.250;8.702;2022-12-18T07:53:46;31.42;;;12.20;;
41964;SDS011;50120;53.250;8.702;2022-12-18T07:56:12;31.80;;;12.23;;
41964;SDS011;50120;53.250;8.702;2022-12-18T07:58:38;30.50;;;11.85;;
41964;SDS011;50120;53.250;8.702;2022-12-18T08:01:05;29.42;;;11.27;;
41964;SDS011;50120;53.250;8.702;2022-12-18T08:03:34;49.40;;;17.10;;
41964;SDS011;50120;53.250;8.702;2022-12-18T08:06:01;41.88;;;15.88;;
41964;SDS011;50120;53.250;8.702;2022-12-18T08:08:29;31.60;;;10.88;;
41964;SDS011;50120;53.250;8.702;2022-12-18T08:10:55;29.33;;;12.00;;
41964;SDS011;50120;53.250;8.702;2022-12-18T08:13:22;37.83;;;14.27;;
41964;SDS011;50120;53.250;8.702;2022-12-18T08:16:04;39.95;;;13.00;;
41964;SDS011;50120;53.250;8.702;2022-12-18T08:18:35;34.10;;;12.98;;
41964;SDS011;50120;53.250;8.702;2022-12-18T08:21:15;32.67;;;13.23;;
41964;SDS011;50120;53.250;8.702;2022-12-18T08:23:43;31.75;;;12.60;;
41964;SDS011;50120;53.250;8.702;2022-12-18T08:26:10;31.38;;;12.18;;
41964;SDS011;50120;53.250;8.702;2022-12-18T08:28:36;38.45;;;13.48;;
41964;SDS011;50120;53.250;8.702;2022-12-18T08:31:02;44.00;;;16.83;;
41964;SDS011;50120;53.250;8.702;2022-12-18T08:33:28;38.72;;;14.60;;
41964;SDS011;50120;53.250;8.702;2022-12-18T08:35:53;31.55;;;12.45;;
41964;SDS011;50120;53.250;8.702;2022-12-18T08:38:19;41.25;;;15.85;;
41964;SDS011;50120;53.250;8.702;2022-12-18T08:40:45;37.95;;;12.70;;
41964;SDS011;50120;53.250;8.702;2022-12-18T08:43:11;38.72;;;15.38;;
41964;SDS011;50120;53.250;8.702;2022-12-18T08:45:55;34.38;;;11.70;;
41964;SDS011;50120;53.250;8.702;2022-12-18T08:48:21;41.35;;;13.32;;
41964;SDS011;50120;53.250;8.702;2022-12-18T08:50:54;36.33;;;12.98;;
41964;SDS011;50120;53.250;8.702;2022-12-18T08:53:20;41.28;;;14.07;;
41964;SDS011;50120;53.250;8.702;2022-12-18T08:55:49;40.50;;;14.73;;
41964;SDS011;50120;53.250;8.702;2022-12-18T08:58:15;41.38;;;15.10;;
41964;SDS011;50120;53.250;8.702;2022-12-18T09:00:41;38.50;;;14.30;;
41964;SDS011;50120;53.250;8.702;2022-12-18T09:03:16;42.17;;;13.25;;
41964;SDS011;50120;53.250;8.702;2022-12-18T09:05:45;41.92;;;15.23;;
41964;SDS011;50120;53.250;8.702;2022-12-18T09:08:11;37.25;;;13.73;;
41964;SDS011;50120;53.250;8.702;2022-12-18T09:10:47;31.23;;;12.40;;
41964;SDS011;50120;53.250;8.702;2022-12-18T09:13:14;29.77;;;11.90;;
41964;SDS011;50120;53.250;8.702;2022-12-18T09:15:45;29.25;;;12.05;;
41964;SDS011;50120;53.250;8.702;2022-12-18T09:18:12;31.02;;;13.70;;
41964;SDS011;50120;53.250;8.702;2022-12-18T09:20:39;33.15;;;12.95;;
41964;SDS011;50120;53.250;8.702;2022-12-18T09:23:05;34.65;;;13.75;;
41964;SDS011;50120;53.250;8.702;2022-12-18T09:25:31;34.60;;;13.77;;
41964;SDS011;50120;53.250;8.702;2022-12-18T09:27:58;28.20;;;12.10;;
41964;SDS011;50120;53.250;8.702;2022-12-18T09:30:25;32.92;;;12.10;;
41964;SDS011;50120;53.250;8.702;2022-12-18T09:32:54;30.15;;;12.57;;
41964;SDS011;50120;53.250;8.702;2022-12-18T09:35:20;37.88;;;13.60;;
41964;SDS011;50120;53.250;8.702;2022-12-18T09:37:46;39.70;;;14.52;;
41964;SDS011;50120;53.250;8.702;2022-12-18T09:40:19;35.67;;;15.02;;
41964;SDS011;50120;53.250;8.702;2022-12-18T09:42:51;36.42;;;13.82;;
41964;SDS011;50120;53.250;8.702;2022-12-18T09:45:20;41.47;;;15.43;;
41964;SDS011;50120;53.250;8.702;2022-12-18T09:47:47;37.15;;;13.98;;
41964;SDS011;50120;53.250;8.702;2022-12-18T09:52:54;42.60;;;15.80;;
41964;SDS011;50120;53.250;8.702;2022-12-18T09:55:39;35.35;;;13.45;;
41964;SDS011;50120;53.250;8.702;2022-12-18T09:58:13;33.33;;;13.43;;
41964;SDS011;50120;53.250;8.702;2022-12-18T10:00:56;39.72;;;14.35;;
41964;SDS011;50120;53.250;8.702;2022-12-18T10:03:22;34.90;;;13.20;;
41964;SDS011;50120;53.250;8.702;2022-12-18T10:11:40;45.88;;;16.20;;
41964;SDS011;50120;53.250;8.702;2022-12-18T10:17:11;34.50;;;14.05;;
41964;SDS011;50120;53.250;8.702;2022-12-18T10:27:29;37.58;;;15.07;;
41964;SDS011;50120;53.250;8.702;2022-12-18T10:29:56;38.22;;;14.35;;
41964;SDS011;50120;53.250;8.702;2022-12-18T10:32:24;32.25;;;13.55;;
41964;SDS011;50120;53.250;8.702;2022-12-18T10:34:52;28.63;;;11.75;;
41964;SDS011;50120;53.250;8.702;2022-12-18T10:37:21;28.45;;;11.90;;
41964;SDS011;50120;53.250;8.702;2022-12-18T10:42:35;32.83;;;12.73;;
41964;SDS011;50120;53.250;8.702;2022-12-18T10:45:03;30.00;;;12.15;;
41964;SDS011;50120;53.250;8.702;2022-12-18T10:47:34;31.15;;;13.38;;
41964;SDS011;50120;53.250;8.702;2022-12-18T10:50:00;35.65;;;13.45;;
41964;SDS011;50120;53.250;8.702;2022-12-18T10:52:26;27.65;;;12.15;;
41964;SDS011;50120;53.250;8.702;2022-12-18T10:57:37;29.90;;;12.00;;
41964;SDS011;50120;53.250;8.702;2022-12-18T11:02:50;36.42;;;14.38;;
41964;SDS011;50120;53.250;8.702;2022-12-18T11:07:55;37.08;;;15.32;;
41964;SDS011;50120;53.250;8.702;2022-12-18T11:10:27;34.05;;;15.73;;
41964;SDS011;50120;53.250;8.702;2022-12-18T11:13:17;32.85;;;13.80;;
41964;SDS011;50120;53.250;8.702;2022-12-18T11:15:45;39.80;;;13.77;;
41964;SDS011;50120;53.250;8.702;2022-12-18T11:18:16;115.60;;;44.78;;
41964;SDS011;50120;53.250;8.702;2022-12-18T11:20:55;64.07;;;24.10;;
41964;SDS011;50120;53.250;8.702;2022-12-18T11:23:24;43.70;;;16.35;;
41964;SDS011;50120;53.250;8.702;2022-12-18T11:25:54;37.58;;;13.45;;
41964;SDS011;50120;53.250;8.702;2022-12-18T11:31:18;28.52;;;12.48;;
41964;SDS011;50120;53.250;8.702;2022-12-18T11:33:50;32.38;;;12.50;;
41964;SDS011;50120;53.250;8.702;2022-12-18T11:36:21;32.28;;;13.63;;
41964;SDS011;50120;53.250;8.702;2022-12-18T11:38:47;30.65;;;12.00;;
41964;SDS011;50120;53.250;8.702;2022-12-18T11:41:28;29.27;;;11.45;;
41964;SDS011;50120;53.250;8.702;2022-12-18T11:44:54;27.02;;;11.23;;
41964;SDS011;50120;53.250;8.702;2022-12-18T11:47:39;31.88;;;12.77;;
41964;SDS011;50120;53.250;8.702;2022-12-18T11:50:16;29.77;;;12.65;;
41964;SDS011;50120;53.250;8.702;2022-12-18T11:52:48;27.90;;;11.73;;
41964;SDS011;50120;53.250;8.702;2022-12-18T11:55:58;28.67;;;11.00;;
41964;SDS011;50120;53.250;8.702;2022-12-18T12:00:58;26.40;;;11.40;;
41964;SDS011;50120;53.250;8.702;2022-12-18T12:06:39;27.70;;;11.02;;
41964;SDS011;50120;53.250;8.702;2022-12-18T12:09:28;27.80;;;11.38;;
41964;SDS011;50120;53.250;8.702;2022-12-18T12:14:51;19.45;;;8.00;;
41964;SDS011;50120;53.250;8.702;2022-12-18T12:23:00;26.13;;;12.30;;
41964;SDS011;50120;53.250;8.702;2022-12-18T12:28:10;25.95;;;10.95;;
41964;SDS011;50120;53.250;8.702;2022-12-18T12:33:31;28.98;;;12.55;;
41964;SDS011;50120;53.250;8.702;2022-12-18T12:36:10;30.27;;;13.60;;
41964;SDS011;50120;53.250;8.702;2022-12-18T12:38:59;22.70;;;10.57;;
41964;SDS011;50120;53.250;8.702;2022-12-18T12:41:31;29.65;;;13.15;;
41964;SDS011;50120;53.250;8.702;2022-12-18T12:44:22;25.13;;;10.90;;
41964;SDS011;50120;53.250;8.702;2022-12-18T12:46:52;21.45;;;7.90;;
41964;SDS011;50120;53.250;8.702;2022-12-18T12:49:25;25.27;;;10.85;;
41964;SDS011;50120;53.250;8.702;2022-12-18T12:51:57;20.45;;;9.30;;
41964;SDS011;50120;53.250;8.702;2022-12-18T12:54:52;19.55;;;8.73;;
41964;SDS011;50120;53.250;8.702;2022-12-18T12:57:33;27.63;;;10.40;;
41964;SDS011;50120;53.250;8.702;2022-12-18T13:00:04;22.23;;;10.32;;
41964;SDS011;50120;53.250;8.702;2022-12-18T13:13:15;24.85;;;10.52;;
41964;SDS011;50120;53.250;8.702;2022-12-18T13:15:45;26.73;;;11.07;;
41964;SDS011;50120;53.250;8.702;2022-12-18T13:18:22;26.27;;;12.15;;
41964;SDS011;50120;53.250;8.702;2022-12-18T13:20:51;34.42;;;12.25;;
41964;SDS011;50120;53.250;8.702;2022-12-18T13:36:42;26.65;;;12.05;;
41964;SDS011;50120;53.250;8.702;2022-12-18T13:41:47;25.03;;;10.33;;
41964;SDS011;50120;53.250;8.702;2022-12-18T13:44:59;19.33;;;8.35;;
41964;SDS011;50120;53.250;8.702;2022-12-18T13:47:35;23.67;;;11.50;;
41964;SDS011;50120;53.250;8.702;2022-12-18T13:50:10;26.45;;;11.02;;
41964;SDS011;50120;53.250;8.702;2022-12-18T13:52:50;20.73;;;9.85;;
41964;SDS011;50120;53.250;8.702;2022-12-18T13:55:17;22.30;;;10.68;;
41964;SDS011;50120;53.250;8.702;2022-12-18T13:57:45;21.15;;;9.80;;
41964;SDS011;50120;53.250;8.702;2022-12-18T14:00:23;22.95;;;9.90;;
41964;SDS011;50120;53.250;8.702;2022-12-18T14:02:52;24.77;;;10.68;;
41964;SDS011;50120;53.250;8.702;2022-12-18T14:05:21;22.55;;;10.30;;
41964;SDS011;50120;53.250;8.702;2022-12-18T14:08:01;25.55;;;11.10;;
41964;SDS011;50120;53.250;8.702;2022-12-18T14:10:47;23.25;;;10.18;;
41964;SDS011;50120;53.250;8.702;2022-12-18T14:13:23;25.25;;;10.68;;
41964;SDS011;50120;53.250;8.702;2022-12-18T14:15:53;26.10;;;10.05;;
41964;SDS011;50120;53.250;8.702;2022-12-18T14:18:20;26.45;;;10.98;;
41964;SDS011;50120;53.250;8.702;2022-12-18T14:20:52;24.38;;;10.80;;
41964;SDS011;50120;53.250;8.702;2022-12-18T14:29:23;21.23;;;9.52;;
41964;SDS011;50120;53.250;8.702;2022-12-18T14:34:42;26.65;;;11.18;;
41964;SDS011;50120;53.250;8.702;2022-12-18T14:37:12;21.75;;;9.55;;
41964;SDS011;50120;53.250;8.702;2022-12-18T14:39:39;16.20;;;8.43;;
41964;SDS011;50120;53.250;8.702;2022-12-18T14:42:05;21.20;;;8.90;;
41964;SDS011;50120;53.250;8.702;2022-12-18T14:44:34;21.48;;;9.30;;
41964;SDS011;50120;53.250;8.702;2022-12-18T14:47:00;24.42;;;10.60;;
41964;SDS011;50120;53.250;8.702;2022-12-18T14:49:27;23.92;;;11.05;;
41964;SDS011;50120;53.250;8.702;2022-12-18T14:52:05;26.90;;;10.93;;
41964;SDS011;50120;53.250;8.702;2022-12-18T14:54:45;28.40;;;11.65;;
41964;SDS011;50120;53.250;8.702;2022-12-18T14:57:20;28.33;;;10.80;;
41964;SDS011;50120;53.250;8.702;2022-12-18T14:59:46;15.35;;;6.57;;
41964;SDS011;50120;53.250;8.702;2022-12-18T15:02:23;22.70;;;10.02;;
41964;SDS011;50120;53.250;8.702;2022-12-18T15:05:14;20.17;;;8.93;;
41964;SDS011;50120;53.250;8.702;2022-12-18T15:07:44;22.50;;;9.15;;
41964;SDS011;50120;53.250;8.702;2022-12-18T15:10:23;23.95;;;9.10;;
41964;SDS011;50120;53.250;8.702;2022-12-18T15:20:41;19.02;;;8.27;;
41964;SDS011;50120;53.250;8.702;2022-12-18T15:23:22;21.38;;;8.00;;
41964;SDS011;50120;53.250;8.702;2022-12-18T15:25:59;19.67;;;7.90;;
41964;SDS011;50120;53.250;8.702;2022-12-18T15:36:08;20.52;;;8.95;;
41964;SDS011;50120;53.250;8.702;2022-12-18T15:38:35;18.60;;;7.53;;
41964;SDS011;50120;53.250;8.702;2022-12-18T15:41:01;16.75;;;7.13;;
41964;SDS011;50120;53.250;8.702;2022-12-18T15:43:30;19.17;;;7.55;;
41964;SDS011;50120;53.250;8.702;2022-12-18T15:45:59;20.95;;;8.10;;
41964;SDS011;50120;53.250;8.702;2022-12-18T15:48:39;19.42;;;7.55;;
41964;SDS011;50120;53.250;8.702;2022-12-18T15:51:13;19.23;;;7.43;;
41964;SDS011;50120;53.250;8.702;2022-12-18T15:53:42;20.75;;;7.93;;
41964;SDS011;50120;53.250;8.702;2022-12-18T15:56:11;18.88;;;7.28;;
41964;SDS011;50120;53.250;8.702;2022-12-18T15:58:56;26.50;;;7.72;;
41964;SDS011;50120;53.250;8.702;2022-12-18T16:01:23;24.58;;;8.25;;
41964;SDS011;50120;53.250;8.702;2022-12-18T16:03:51;20.10;;;8.18;;
41964;SDS011;50120;53.250;8.702;2022-12-18T16:06:16;18.55;;;7.45;;
41964;SDS011;50120;53.250;8.702;2022-12-18T16:08:42;20.33;;;7.47;;
41964;SDS011;50120;53.250;8.702;2022-12-18T16:11:14;16.00;;;7.60;;
41964;SDS011;50120;53.250;8.702;2022-12-18T16:13:45;18.13;;;7.82;;
41964;SDS011;50120;53.250;8.702;2022-12-18T16:16:10;21.13;;;8.20;;
41964;SDS011;50120;53.250;8.702;2022-12-18T16:18:36;18.88;;;8.13;;
41964;SDS011;50120;53.250;8.702;2022-12-18T16:21:02;22.45;;;7.95;;
41964;SDS011;50120;53.250;8.702;2022-12-18T16:23:28;20.67;;;8.60;;
41964;SDS011;50120;53.250;8.702;2022-12-18T16:25:53;19.88;;;8.48;;
41964;SDS011;50120;53.250;8.702;2022-12-18T16:28:19;18.90;;;8.07;;
41964;SDS011;50120;53.250;8.702;2022-12-18T16:30:45;25.50;;;9.93;;
41964;SDS011;50120;53.250;8.702;2022-12-18T16:33:11;20.63;;;8.60;;
41964;SDS011;50120;53.250;8.702;2022-12-18T16:35:36;19.85;;;9.02;;
41964;SDS011;50120;53.250;8.702;2022-12-18T16:38:02;19.35;;;8.10;;
41964;SDS011;50120;53.250;8.702;2022-12-18T16:40:28;19.13;;;9.65;;
41964;SDS011;50120;53.250;8.702;2022-12-18T16:42:57;19.83;;;9.45;;
41964;SDS011;50120;53.250;8.702;2022-12-18T16:45:23;17.40;;;7.65;;
41964;SDS011;50120;53.250;8.702;2022-12-18T16:47:51;17.30;;;7.32;;
41964;SDS011;50120;53.250;8.702;2022-12-18T16:50:17;19.52;;;6.72;;
41964;SDS011;50120;53.250;8.702;2022-12-18T16:52:42;17.25;;;7.88;;
41964;SDS011;50120;53.250;8.702;2022-12-18T16:55:08;16.70;;;7.18;;